Time;durP1;ratioP1;P1;durP2;ratioP2;P2;SDS_P1;SDS_P2;PMS_P1;PMS_P2;Temp;Humidity;BMP_temperature;BMP_pressure;BME280_temperature;BME280_humidity;BME280_pressure;Samples;Min_cycle;Max_cycle;Signal;HPM_P1;HPM_P2
2022/03/05 00:00:08;;;;;;;26.93;17.17;;;4.50;99.90;;;;;;5075118;28;20446;-79
2022/03/05 00:02:34;;;;;;;27.50;16.53;;;4.40;99.90;;;;;;5074970;28;20477;-77
2022/03/05 00:05:01;;;;;;;22.93;17.07;;;4.40;99.90;;;;;;5074302;28;20423;-79
2022/03/05 00:07:28;;;;;;;23.57;17.33;;;4.40;99.90;;;;;;5074687;28;20454;-79
2022/03/05 00:09:56;;;;;;;22.57;17.00;;;4.40;99.90;;;;;;5074646;28;20944;-78
2022/03/05 00:12:24;;;;;;;23.20;17.40;;;4.30;99.90;;;;;;5074375;28;20809;-77
2022/03/05 00:14:51;;;;;;;24.77;17.37;;;4.30;99.90;;;;;;5074605;28;20490;-76
2022/03/05 00:17:18;;;;;;;23.20;17.23;;;4.20;99.90;;;;;;5065178;28;20470;-78
2022/03/05 00:19:45;;;;;;;25.90;17.63;;;4.10;99.90;;;;;;5054200;28;20482;-75
2022/03/05 00:22:12;;;;;;;25.47;16.53;;;4.10;99.90;;;;;;5053987;28;20447;-78
2022/03/05 00:24:38;;;;;;;27.63;17.23;;;4.00;99.90;;;;;;5054544;28;20459;-83
2022/03/05 00:27:05;;;;;;;23.17;17.47;;;4.00;99.90;;;;;;5054249;28;20444;-78
2022/03/05 00:29:33;;;;;;;23.60;16.80;;;3.90;99.90;;;;;;5054426;28;20427;-77
2022/03/05 00:32:00;;;;;;;22.60;16.93;;;3.80;99.90;;;;;;5054281;28;20444;-78
2022/03/05 00:34:27;;;;;;;22.67;17.50;;;3.80;99.90;;;;;;5053730;28;20810;-79
2022/03/05 00:36:54;;;;;;;24.67;17.73;;;3.80;99.90;;;;;;5054278;28;20443;-78
2022/03/05 00:39:20;;;;;;;25.63;16.93;;;3.80;99.90;;;;;;5054194;28;20443;-77
2022/03/05 00:41:47;;;;;;;27.47;17.40;;;3.70;99.90;;;;;;5053536;28;20454;-77
2022/03/05 00:44:14;;;;;;;25.73;18.43;;;3.60;99.90;;;;;;5054077;28;20435;-74
2022/03/05 00:46:42;;;;;;;23.57;17.20;;;3.60;99.90;;;;;;5053929;28;20807;-81
2022/03/05 00:49:09;;;;;;;25.90;17.30;;;3.70;99.90;;;;;;5053239;28;20443;-75
2022/03/05 00:51:36;;;;;;;32.37;17.83;;;3.60;99.90;;;;;;5053704;28;20451;-75
2022/03/05 00:54:03;;;;;;;26.85;20.42;;;3.60;99.90;;;;;;5053492;28;20429;-76
2022/03/05 00:56:29;;;;;;;23.40;17.90;;;3.70;99.90;;;;;;5053871;28;20226;-76
2022/03/05 00:58:56;;;;;;;27.20;18.07;;;3.70;99.90;;;;;;5053430;28;20451;-74
2022/03/05 01:01:23;;;;;;;33.40;18.83;;;3.60;99.90;;;;;;5053573;28;20534;-78
2022/03/05 01:03:51;;;;;;;25.00;17.67;;;3.50;99.90;;;;;;5052405;28;20447;-78
2022/03/05 01:06:18;;;;;;;33.07;17.83;;;3.40;99.90;;;;;;5053300;28;20454;-78
2022/03/05 01:08:45;;;;;;;27.90;18.10;;;3.50;99.90;;;;;;5053669;28;20451;-81
2022/03/05 01:11:15;;;;;;;31.10;19.27;;;3.50;99.90;;;;;;5053774;28;20431;-78
2022/03/05 01:13:42;;;;;;;26.90;18.47;;;3.50;99.90;;;;;;5053427;28;20451;-76
2022/03/05 01:16:09;;;;;;;29.20;19.00;;;3.40;99.90;;;;;;5053395;28;20494;-73
2022/03/05 01:18:36;;;;;;;27.00;18.90;;;3.40;99.90;;;;;;5054104;28;20787;-77
2022/03/05 01:21:04;;;;;;;30.20;19.20;;;3.40;99.90;;;;;;5053246;28;20530;-79
2022/03/05 01:23:31;;;;;;;27.90;19.30;;;3.40;99.90;;;;;;5053559;28;20463;-79
2022/03/05 01:25:58;;;;;;;28.97;18.90;;;3.40;99.90;;;;;;5053017;28;20823;-78
2022/03/05 01:28:25;;;;;;;29.50;18.87;;;3.30;99.90;;;;;;5053180;28;20440;-78
2022/03/05 01:30:52;;;;;;;32.33;20.37;;;3.30;99.90;;;;;;5053111;28;20453;-80
2022/03/05 01:33:19;;;;;;;29.77;19.40;;;3.20;99.90;;;;;;5053036;28;20432;-80
2022/03/05 01:35:48;;;;;;;30.60;19.13;;;3.20;99.90;;;;;;5053355;28;20478;-81
2022/03/05 01:38:17;;;;;;;33.63;20.53;;;3.20;99.90;;;;;;5052951;28;20871;-78
2022/03/05 01:40:44;;;;;;;28.57;19.73;;;3.20;99.90;;;;;;5053167;28;20444;-80
2022/03/05 01:43:11;;;;;;;33.45;23.25;;;3.10;99.90;;;;;;5052338;28;20937;-79
2022/03/05 01:45:39;;;;;;;28.73;20.97;;;3.10;99.90;;;;;;5053196;28;20207;-81
2022/03/05 01:48:07;;;;;;;30.23;20.63;;;3.10;99.90;;;;;;5052878;28;20451;-74
2022/03/05 01:50:34;;;;;;;29.67;20.27;;;3.00;99.90;;;;;;5053113;28;20458;-74
2022/03/05 01:53:01;;;;;;;30.57;21.27;;;3.00;99.90;;;;;;5052997;28;20942;-74
2022/03/05 01:55:29;;;;;;;33.13;22.27;;;3.10;99.90;;;;;;5052542;28;20474;-78
2022/03/05 01:57:56;;;;;;;32.17;20.70;;;3.10;99.90;;;;;;5052773;28;20447;-77
2022/03/05 02:00:23;;;;;;;31.50;21.20;;;3.00;99.90;;;;;;5053068;28;20892;-78
2022/03/05 02:02:51;;;;;;;31.60;21.40;;;3.10;99.90;;;;;;5052845;28;20443;-77
2022/03/05 02:05:18;;;;;;;29.63;22.27;;;3.00;99.90;;;;;;5052854;28;20451;-80
2022/03/05 02:07:45;;;;;;;34.70;21.27;;;2.80;99.90;;;;;;5052917;28;20451;-81
2022/03/05 02:10:12;;;;;;;31.20;21.23;;;2.80;99.90;;;;;;5052602;28;20448;-79
2022/03/05 02:12:40;;;;;;;36.83;21.40;;;2.80;99.90;;;;;;5052468;28;20459;-79
2022/03/05 02:15:09;;;;;;;27.67;21.50;;;2.80;99.90;;;;;;5053455;28;20489;-80
2022/03/05 02:17:36;;;;;;;29.47;20.60;;;2.80;99.90;;;;;;5059416;28;20474;-81
2022/03/05 02:20:06;;;;;;;33.40;21.40;;;2.80;99.90;;;;;;5076472;28;20446;-77
2022/03/05 02:22:34;;;;;;;30.07;21.33;;;2.70;99.90;;;;;;5076622;28;20926;-80
2022/03/05 02:25:03;;;;;;;30.50;22.17;;;2.70;99.90;;;;;;5076631;28;20439;-78
2022/03/05 02:27:31;;;;;;;33.70;21.57;;;2.60;99.90;;;;;;5077013;28;20445;-74
2022/03/05 02:29:58;;;;;;;32.20;23.07;;;2.50;99.90;;;;;;5076145;28;20442;-75
2022/03/05 02:32:26;;;;;;;31.50;20.70;;;2.50;99.90;;;;;;5076659;28;20445;-74
2022/03/05 02:34:53;;;;;;;31.20;21.20;;;2.50;99.90;;;;;;5076688;28;20435;-74
2022/03/05 02:37:20;;;;;;;29.40;21.07;;;2.50;99.90;;;;;;5076356;28;20454;-78
2022/03/05 02:39:49;;;;;;;31.00;20.37;;;2.40;99.90;;;;;;5076262;28;20443;-75
2022/03/05 02:42:17;;;;;;;33.97;21.37;;;2.40;99.90;;;;;;5076450;28;20442;-76
2022/03/05 02:44:45;;;;;;;35.17;22.10;;;2.30;99.90;;;;;;5076090;28;20449;-74
2022/03/05 02:47:12;;;;;;;31.17;21.20;;;2.30;99.90;;;;;;5076390;28;20850;-75
2022/03/05 02:49:39;;;;;;;34.53;20.77;;;2.40;99.90;;;;;;5075911;28;20454;-75
2022/03/05 02:52:06;;;;;;;32.90;20.53;;;2.30;99.90;;;;;;5076424;28;20780;-82
2022/03/05 02:54:34;;;;;;;27.83;20.80;;;2.20;99.90;;;;;;5075789;28;20949;-74
2022/03/05 02:57:02;;;;;;;33.30;26.95;;;2.10;99.90;;;;;;5075038;28;20462;-78
2022/03/05 02:59:29;;;;;;;33.80;23.13;;;2.00;99.90;;;;;;5075790;28;20194;-79
2022/03/05 03:01:56;;;;;;;33.93;23.50;;;2.10;99.90;;;;;;5075836;28;20437;-76
2022/03/05 03:04:23;;;;;;;35.13;22.20;;;1.90;99.90;;;;;;5076006;28;20859;-76
2022/03/05 03:06:50;;;;;;;32.43;22.20;;;1.90;99.90;;;;;;5075457;28;20844;-75
2022/03/05 03:09:17;;;;;;;35.47;22.10;;;1.80;99.90;;;;;;5075840;28;20481;-78
2022/03/05 03:11:44;;;;;;;36.83;22.20;;;1.80;99.90;;;;;;5075741;28;20457;-81
2022/03/05 03:14:12;;;;;;;32.43;21.93;;;1.90;99.90;;;;;;5075645;28;20431;-76
2022/03/05 03:16:39;;;;;;;34.80;22.70;;;1.80;99.90;;;;;;5075531;28;20494;-76
2022/03/05 03:19:06;;;;;;;35.93;21.77;;;1.90;99.90;;;;;;5061828;28;20450;-75
2022/03/05 03:21:33;;;;;;;38.92;29.45;;;1.80;99.90;;;;;;5054691;28;20452;-81
2022/03/05 03:23:59;;;;;;;35.63;23.97;;;1.80;99.90;;;;;;5055469;28;20203;-75
2022/03/05 03:26:27;;;;;;;37.00;23.90;;;1.80;99.90;;;;;;5055277;28;20436;-78
2022/03/05 03:28:54;;;;;;;35.33;23.33;;;1.80;99.90;;;;;;5060003;28;20477;-77
2022/03/05 03:31:22;;;;;;;33.40;22.80;;;1.80;99.90;;;;;;5062854;28;20471;-79
2022/03/05 03:33:49;;;;;;;35.10;22.97;;;1.70;99.90;;;;;;5054515;28;20444;-80
2022/03/05 03:36:15;;;;;;;32.93;23.50;;;1.60;99.90;;;;;;5053888;28;20853;-76
2022/03/05 03:38:42;;;;;;;34.27;23.70;;;1.70;99.90;;;;;;5055097;28;20526;-78
2022/03/05 03:41:09;;;;;;;31.10;22.33;;;1.70;99.90;;;;;;5054668;28;20448;-79
2022/03/05 03:43:36;;;;;;;36.50;23.13;;;1.60;99.90;;;;;;5055082;28;20439;-79
2022/03/05 03:46:03;;;;;;;36.90;28.85;;;1.60;99.90;;;;;;5054193;28;20434;-76
2022/03/05 03:48:31;;;;;;;32.83;23.93;;;1.70;99.90;;;;;;5055223;28;20214;-74
2022/03/05 03:50:58;;;;;;;29.47;21.37;;;1.80;99.90;;;;;;5054400;28;20459;-75
2022/03/05 03:53:25;;;;;;;36.70;22.90;;;1.70;99.90;;;;;;5055059;28;20435;-74
2022/03/05 03:55:51;;;;;;;35.97;21.53;;;1.60;99.90;;;;;;5055052;28;20471;-79
2022/03/05 03:58:18;;;;;;;32.93;21.37;;;1.60;99.90;;;;;;5054409;28;20436;-77
2022/03/05 04:00:45;;;;;;;30.27;20.97;;;1.50;99.90;;;;;;5054646;28;20454;-74
2022/03/05 04:03:12;;;;;;;35.33;21.80;;;1.50;99.90;;;;;;5054913;28;20451;-74
2022/03/05 04:05:40;;;;;;;34.43;20.83;;;1.50;99.90;;;;;;5055183;28;20459;-75
2022/03/05 04:10:52;;;;;;;34.13;21.60;;;1.20;99.90;;;;;;5054534;28;20430;-77
2022/03/05 04:13:19;;;;;;;31.57;21.93;;;1.20;99.90;;;;;;5054526;28;20455;-75
2022/03/05 04:15:46;;;;;;;33.37;22.37;;;1.10;99.90;;;;;;5054632;28;20486;-74
2022/03/05 04:18:13;;;;;;;34.03;22.10;;;1.10;99.90;;;;;;5054031;28;20438;-78
2022/03/05 04:20:41;;;;;;;33.63;22.77;;;1.00;99.90;;;;;;5054661;28;20444;-75
2022/03/05 04:23:08;;;;;;;33.43;22.73;;;1.00;99.90;;;;;;5054417;28;20443;-78
2022/03/05 04:25:35;;;;;;;35.50;22.83;;;1.00;99.90;;;;;;5053667;28;20444;-78
2022/03/05 04:28:01;;;;;;;33.53;22.97;;;1.10;99.90;;;;;;5054202;28;20455;-79
2022/03/05 04:30:29;;;;;;;33.47;23.03;;;1.30;99.90;;;;;;5069324;28;20466;-83
2022/03/05 04:32:56;;;;;;;34.87;22.60;;;1.30;99.90;;;;;;5074485;28;20458;-80
2022/03/05 04:35:25;;;;;;;37.45;28.35;;;1.20;99.90;;;;;;5073053;28;20428;-80
2022/03/05 04:37:55;;;;;;;31.17;23.47;;;1.30;99.90;;;;;;5073752;28;20232;-79
2022/03/05 04:40:22;;;;;;;36.90;23.73;;;1.30;99.90;;;;;;5072859;28;20560;-74
2022/03/05 04:42:49;;;;;;;33.67;22.87;;;1.30;99.90;;;;;;5073649;28;20800;-76
2022/03/05 04:45:17;;;;;;;35.67;23.33;;;1.30;99.90;;;;;;5073926;28;20455;-82
2022/03/05 04:47:45;;;;;;;34.03;22.43;;;1.30;99.90;;;;;;5073893;28;20465;-80
2022/03/05 04:50:11;;;;;;;34.00;21.97;;;1.20;99.90;;;;;;5073918;28;20446;-80
2022/03/05 04:52:39;;;;;;;35.23;22.63;;;1.30;99.90;;;;;;5073709;28;20446;-79
2022/03/05 04:55:08;;;;;;;32.53;21.13;;;1.30;99.90;;;;;;5073429;28;20438;-76
2022/03/05 04:57:35;;;;;;;36.47;22.50;;;1.30;99.90;;;;;;5073965;28;20486;-74
2022/03/05 05:00:03;;;;;;;35.77;22.83;;;1.20;99.90;;;;;;5073663;28;20952;-75
2022/03/05 05:02:30;;;;;;;36.80;23.00;;;1.10;99.90;;;;;;5073435;28;20435;-81
2022/03/05 05:04:57;;;;;;;34.93;23.20;;;1.20;99.90;;;;;;5073986;28;20427;-80
2022/03/05 05:07:24;;;;;;;33.63;22.10;;;1.20;99.90;;;;;;5073407;28;20446;-77
2022/03/05 05:09:51;;;;;;;34.13;22.87;;;1.10;99.90;;;;;;5073416;28;20449;-82
2022/03/05 05:12:19;;;;;;;36.50;22.37;;;0.90;99.90;;;;;;5073605;28;20434;-78
2022/03/05 05:14:46;;;;;;;35.70;22.00;;;0.90;99.90;;;;;;5073546;28;20446;-74
2022/03/05 05:17:12;;;;;;;32.70;21.30;;;0.90;99.90;;;;;;5073472;28;20494;-78
2022/03/05 05:19:39;;;;;;;35.03;22.97;;;0.90;99.90;;;;;;5073239;28;20430;-77
2022/03/05 05:22:07;;;;;;;30.60;20.97;;;0.80;99.90;;;;;;5073176;28;20446;-78
2022/03/05 05:24:36;;;;;;;36.58;26.88;;;0.90;99.90;;;;;;5072444;28;20436;-77
2022/03/05 05:27:04;;;;;;;37.30;23.70;;;0.90;99.90;;;;;;5073276;28;20288;-78
2022/03/05 05:29:33;;;;;;;32.20;22.23;;;0.90;99.90;;;;;;5070203;28;20523;-77
2022/03/05 05:32:00;;;;;;;36.03;23.23;;;1.00;99.90;;;;;;5073266;28;20431;-74
2022/03/05 05:34:27;;;;;;;32.50;22.37;;;0.90;99.90;;;;;;5073060;28;20446;-74
2022/03/05 05:36:53;;;;;;;32.37;21.77;;;0.90;99.90;;;;;;5073207;28;20494;-75
2022/03/05 05:39:20;;;;;;;31.67;22.13;;;0.80;99.90;;;;;;5072788;28;20457;-79
2022/03/05 05:41:47;;;;;;;33.57;21.87;;;0.70;99.90;;;;;;5073259;28;20447;-80
2022/03/05 05:44:14;;;;;;;35.53;22.27;;;0.60;99.90;;;;;;5073088;28;20434;-74
2022/03/05 05:46:42;;;;;;;33.73;21.67;;;0.70;99.90;;;;;;5073021;28;20446;-77
2022/03/05 05:49:09;;;;;;;35.70;21.67;;;0.80;99.90;;;;;;5072630;28;20921;-80
2022/03/05 05:51:36;;;;;;;33.67;21.80;;;0.80;99.90;;;;;;5072582;28;20462;-74
2022/03/05 05:54:08;;;;;;;36.30;22.83;;;0.90;99.90;;;;;;5072839;28;20443;-80
2022/03/05 05:56:36;;;;;;;34.17;21.90;;;0.80;99.90;;;;;;5072601;28;20485;-75
2022/03/05 05:59:04;;;;;;;33.80;21.57;;;0.80;99.90;;;;;;5073069;28;20434;-79
2022/03/05 06:01:30;;;;;;;39.00;24.33;;;0.80;99.90;;;;;;5068580;28;20467;-78
2022/03/05 06:03:59;;;;;;;35.60;21.37;;;0.90;99.90;;;;;;5072386;28;20446;-79
2022/03/05 06:06:26;;;;;;;37.53;20.93;;;0.80;99.90;;;;;;5070844;28;20553;-73
2022/03/05 06:08:52;;;;;;;41.60;22.60;;;0.70;99.90;;;;;;5071607;28;20461;-72
2022/03/05 06:11:19;;;;;;;34.80;22.57;;;0.70;99.90;;;;;;5073142;28;20442;-78
2022/03/05 06:13:46;;;;;;;35.88;26.40;;;0.70;99.90;;;;;;5072332;28;20526;-81
2022/03/05 06:16:13;;;;;;;39.50;24.03;;;0.80;99.90;;;;;;5072222;28;20229;-78
2022/03/05 06:18:41;;;;;;;32.47;22.70;;;0.90;99.90;;;;;;5072794;28;20442;-79
2022/03/05 06:21:09;;;;;;;33.27;22.87;;;0.90;99.90;;;;;;5072585;28;20449;-77
2022/03/05 06:23:37;;;;;;;35.57;22.80;;;0.80;99.90;;;;;;5072134;28;20469;-78
2022/03/05 06:26:04;;;;;;;38.70;22.60;;;0.90;99.90;;;;;;5072502;28;20446;-73
2022/03/05 06:28:31;;;;;;;40.90;22.40;;;0.80;99.90;;;;;;5072739;28;20434;-74
2022/03/05 06:30:58;;;;;;;36.90;23.40;;;0.80;99.90;;;;;;5061192;28;20450;-78
2022/03/05 06:33:24;;;;;;;40.93;22.80;;;0.90;99.90;;;;;;5052529;28;20443;-77
2022/03/05 06:35:51;;;;;;;35.77;22.90;;;0.90;99.90;;;;;;5052257;28;20444;-81
2022/03/05 06:38:20;;;;;;;38.08;25.85;;;1.00;99.90;;;;;;5051735;28;20457;-79
2022/03/05 06:40:47;;;;;;;38.63;24.60;;;0.70;99.90;;;;;;5052161;28;20195;-79
2022/03/05 06:43:15;;;;;;;39.03;23.83;;;0.60;99.90;;;;;;5052600;28;20423;-77
2022/03/05 06:45:42;;;;;;;39.53;23.53;;;0.70;99.90;;;;;;5052292;28;20972;-80
2022/03/05 06:48:09;;;;;;;33.33;22.40;;;0.70;99.90;;;;;;5052547;28;20448;-80
2022/03/05 06:50:36;;;;;;;36.60;22.87;;;0.80;99.90;;;;;;5051650;28;20549;-73
2022/03/05 06:53:04;;;;;;;38.80;21.93;;;0.90;99.90;;;;;;5052364;28;20443;-78
2022/03/05 06:55:32;;;;;;;37.30;24.33;;;1.00;99.90;;;;;;5052209;28;20451;-78
2022/03/05 06:57:59;;;;;;;36.20;24.53;;;1.10;99.90;;;;;;5051973;28;20989;-74
2022/03/05 07:00:26;;;;;;;36.17;22.80;;;1.00;99.90;;;;;;5052081;28;20795;-77
2022/03/05 07:02:53;;;;;;;36.08;23.45;;;1.00;99.90;;;;;;5053777;28;20438;-78
2022/03/05 07:05:19;;;;;;;36.23;23.20;;;1.00;99.90;;;;;;5055923;28;20199;-79
2022/03/05 07:07:46;;;;;;;35.17;23.10;;;1.00;99.90;;;;;;5055676;28;20458;-77
2022/03/05 07:10:13;;;;;;;33.37;22.67;;;1.10;99.90;;;;;;5055515;28;20479;-81
2022/03/05 07:12:42;;;;;;;32.97;22.20;;;1.20;99.90;;;;;;5055711;28;20442;-75
2022/03/05 07:15:09;;;;;;;33.27;21.03;;;1.20;99.90;;;;;;5055377;28;20754;-74
2022/03/05 07:17:36;;;;;;;32.40;21.30;;;1.30;99.90;;;;;;5055706;28;20502;-82
2022/03/05 07:20:04;;;;;;;37.07;22.10;;;1.30;99.90;;;;;;5055126;28;20810;-83
2022/03/05 07:22:32;;;;;;;41.33;22.93;;;1.40;99.90;;;;;;5055388;28;20444;-79
2022/03/05 07:24:59;;;;;;;34.13;22.40;;;1.40;99.90;;;;;;5055455;28;20451;-79
2022/03/05 07:27:25;;;;;;;37.50;23.13;;;1.40;99.90;;;;;;5055233;28;20450;-81
2022/03/05 07:29:54;;;;;;;34.30;22.50;;;1.60;99.90;;;;;;5055724;28;20436;-73
2022/03/05 07:32:20;;;;;;;36.63;22.77;;;1.70;99.90;;;;;;5070863;28;20438;-80
2022/03/05 07:34:47;;;;;;;42.07;24.57;;;1.80;99.90;;;;;;5075016;28;20854;-75
2022/03/05 07:37:14;;;;;;;33.53;23.77;;;1.90;99.90;;;;;;5075229;28;20490;-80
2022/03/05 07:39:41;;;;;;;38.20;23.43;;;2.00;99.90;;;;;;5074892;28;20442;-79
2022/03/05 07:42:08;;;;;;;41.53;23.53;;;2.00;99.90;;;;;;5075303;28;20454;-76
2022/03/05 07:44:36;;;;;;;38.67;23.70;;;2.10;99.90;;;;;;5075090;28;20450;-82
2022/03/05 07:47:05;;;;;;;37.97;25.00;;;2.20;99.90;;;;;;5075100;28;20525;-84
2022/03/05 07:49:32;;;;;;;41.47;23.03;;;2.30;99.90;;;;;;5074724;28;20443;-81
2022/03/05 07:51:59;;;;;;;43.40;23.90;;;2.30;99.90;;;;;;5075043;28;20442;-81
2022/03/05 07:54:26;;;;;;;38.70;30.75;;;2.50;99.90;;;;;;5073708;28;20422;-84
2022/03/05 07:56:53;;;;;;;42.50;26.97;;;2.70;99.90;;;;;;5075199;28;20301;-82
2022/03/05 07:59:20;;;;;;;38.10;25.40;;;2.90;99.90;;;;;;5075379;28;20450;-82
2022/03/05 08:01:47;;;;;;;38.17;25.20;;;2.90;99.90;;;;;;5074774;28;20443;-81
2022/03/05 08:04:16;;;;;;;34.63;23.40;;;3.00;99.90;;;;;;5074560;28;20446;-85
2022/03/05 08:06:42;;;;;;;38.60;24.93;;;3.10;99.90;;;;;;5055026;28;20938;-85
2022/03/05 08:09:09;;;;;;;41.07;25.07;;;3.10;99.90;;;;;;5072133;28;20434;-81
2022/03/05 08:11:39;;;;;;;37.93;24.33;;;3.10;99.90;;;;;;5074674;28;20439;-81
2022/03/05 08:14:06;;;;;;;41.93;24.60;;;3.20;99.90;;;;;;5074438;28;20458;-83
2022/03/05 08:16:34;;;;;;;35.53;25.00;;;3.30;99.90;;;;;;5074181;28;20467;-82
2022/03/05 08:19:00;;;;;;;41.08;33.00;;;3.40;99.90;;;;;;5073224;28;20452;-76
2022/03/05 08:21:29;;;;;;;40.80;27.73;;;3.50;99.90;;;;;;5074358;28;20208;-86
2022/03/05 08:23:56;;;;;;;41.53;26.17;;;3.50;99.90;;;;;;5075082;28;20547;-86
2022/03/05 08:26:24;;;;;;;40.90;26.60;;;3.60;99.90;;;;;;5074821;28;20431;-83
2022/03/05 08:28:50;;;;;;;41.60;26.70;;;3.80;99.90;;;;;;5074586;28;20450;-85
2022/03/05 08:31:17;;;;;;;42.03;26.63;;;3.80;99.90;;;;;;5070270;28;20450;-86
2022/03/05 08:33:45;;;;;;;43.33;26.47;;;3.80;99.90;;;;;;5054145;28;20933;-82
2022/03/05 08:36:12;;;;;;;38.93;26.03;;;3.80;99.90;;;;;;5054608;28;20446;-81
2022/03/05 08:38:41;;;;;;;36.47;26.40;;;3.90;99.90;;;;;;5053808;28;20495;-85
2022/03/05 08:41:07;;;;;;;42.40;27.87;;;4.00;99.90;;;;;;5053843;28;20440;-83
2022/03/05 08:43:34;;;;;;;40.33;25.87;;;4.10;99.90;;;;;;5054742;28;20440;-82
2022/03/05 08:46:02;;;;;;;39.73;27.30;;;4.20;99.90;;;;;;5054457;28;20455;-81
2022/03/05 08:48:29;;;;;;;41.60;26.80;;;4.20;99.90;;;;;;5054054;28;20435;-82
2022/03/05 08:50:56;;;;;;;39.97;25.97;;;4.20;99.90;;;;;;5062727;28;20450;-83
2022/03/05 08:53:23;;;;;;;44.77;28.90;;;4.40;99.90;;;;;;5073992;28;20451;-81
2022/03/05 08:55:57;;;;;;;38.83;28.00;;;4.40;99.90;;;;;;5073913;28;20438;-79
2022/03/05 08:58:25;;;;;;;44.30;28.63;;;4.70;99.90;;;;;;5073608;28;20577;-84
2022/03/05 09:00:52;;;;;;;41.77;27.47;;;4.80;99.90;;;;;;5072400;28;20960;-84
2022/03/05 09:03:19;;;;;;;42.63;27.53;;;5.10;99.90;;;;;;5073661;28;20435;-84
2022/03/05 09:05:47;;;;;;;45.67;29.03;;;5.20;99.90;;;;;;5073602;28;20442;-80
2022/03/05 09:08:15;;;;;;;43.53;28.67;;;5.20;99.90;;;;;;5073461;28;20461;-81
2022/03/05 09:10:42;;;;;;;44.60;30.10;;;5.20;99.90;;;;;;5073619;28;20435;-83
2022/03/05 09:13:11;;;;;;;41.13;28.47;;;5.20;99.90;;;;;;5073932;28;20447;-84
2022/03/05 09:15:38;;;;;;;39.53;28.37;;;5.20;99.90;;;;;;5073688;28;20494;-84
2022/03/05 09:18:05;;;;;;;39.60;27.70;;;5.40;99.90;;;;;;5073873;28;20482;-82
2022/03/05 09:20:32;;;;;;;39.57;28.27;;;5.40;99.90;;;;;;5073897;28;20446;-81
2022/03/05 09:23:01;;;;;;;40.07;28.60;;;5.50;99.90;;;;;;5073691;28;20477;-80
2022/03/05 09:25:28;;;;;;;41.50;28.17;;;5.60;99.90;;;;;;5073256;28;20482;-80
2022/03/05 09:27:55;;;;;;;43.13;28.53;;;5.70;99.90;;;;;;5074091;28;20451;-78
2022/03/05 09:30:24;;;;;;;43.03;34.05;;;5.70;99.90;;;;;;5072972;28;20435;-80
2022/03/05 09:32:50;;;;;;;40.40;28.87;;;6.10;99.90;;;;;;5059346;28;20212;-85
2022/03/05 09:35:17;;;;;;;39.00;28.30;;;6.40;99.90;;;;;;5053719;28;20201;-78
2022/03/05 09:37:44;;;;;;;41.00;27.77;;;6.60;99.90;;;;;;5053724;28;20617;-82
2022/03/05 09:40:12;;;;;;;37.63;27.40;;;6.30;99.90;;;;;;5053784;28;20202;-75
2022/03/05 09:42:42;;;;;;;41.03;27.83;;;6.30;99.90;;;;;;5066598;28;20205;-75
2022/03/05 09:45:10;;;;;;;40.10;26.83;;;6.50;99.90;;;;;;5072167;28;20680;-80
2022/03/05 09:47:40;;;;;;;39.10;27.07;;;6.60;99.90;;;;;;5072825;28;20201;-80
2022/03/05 09:50:08;;;;;;;38.50;27.27;;;6.70;99.90;;;;;;5072602;28;20208;-75
2022/03/05 09:52:35;;;;;;;41.77;28.43;;;6.70;99.90;;;;;;5072960;28;20194;-75
2022/03/05 09:55:04;;;;;;;43.83;31.75;;;6.70;99.90;;;;;;5072898;28;20435;-79
2022/03/05 09:57:31;;;;;;;44.40;28.87;;;6.80;99.90;;;;;;5073784;28;20230;-75
2022/03/05 09:59:58;;;;;;;44.50;29.53;;;7.00;99.90;;;;;;5073185;28;20296;-82
2022/03/05 10:02:24;;;;;;;50.33;30.57;;;7.00;99.90;;;;;;5073647;28;20209;-79
2022/03/05 10:05:11;;;;;;;38.93;26.87;;;7.00;99.90;;;;;;5073648;28;20212;-77
2022/03/05 10:07:38;;;;;;;40.93;27.23;;;7.10;99.90;;;;;;5074324;28;20197;-78
2022/03/05 10:10:09;;;;;;;37.87;26.70;;;7.30;99.90;;;;;;5074073;28;20292;-75
2022/03/05 10:12:36;;;;;;;40.87;27.23;;;7.40;99.90;;;;;;5073853;28;20532;-75
2022/03/05 10:15:08;;;;;;;39.40;26.43;;;7.50;99.90;;;;;;5073709;28;20208;-75
2022/03/05 10:17:56;;;;;;;47.57;26.07;;;7.60;99.90;;;;;;5073657;28;20304;-76
2022/03/05 10:20:26;;;;;;;46.27;27.53;;;7.60;99.90;;;;;;5073475;28;20216;-78
2022/03/05 10:22:58;;;;;;;36.57;24.87;;;7.70;99.90;;;;;;5073768;28;20190;-81
2022/03/05 10:25:40;;;;;;;34.27;24.10;;;7.70;99.90;;;;;;5073586;28;20190;-78
2022/03/05 10:28:10;;;;;;;31.70;22.67;;;7.80;99.90;;;;;;5073315;28;20201;-74
2022/03/05 10:30:40;;;;;;;36.67;24.90;;;8.00;99.90;;;;;;5073832;28;20217;-76
2022/03/05 10:33:08;;;;;;;36.30;25.23;;;8.00;99.90;;;;;;5063176;28;20199;-75
2022/03/05 10:35:36;;;;;;;33.77;24.07;;;7.90;99.90;;;;;;5053626;28;20286;-76
2022/03/05 10:38:04;;;;;;;33.47;24.70;;;8.00;99.90;;;;;;5055262;28;20230;-76
2022/03/05 10:40:34;;;;;;;32.87;24.60;;;8.00;99.90;;;;;;5057268;28;20213;-75
2022/03/05 10:43:04;;;;;;;35.93;24.10;;;8.00;99.90;;;;;;5057026;28;20559;-75
2022/03/05 10:45:48;;;;;;;39.60;26.67;;;8.00;99.90;;;;;;5056861;28;20290;-80
2022/03/05 10:48:24;;;;;;;36.43;24.60;;;8.20;99.90;;;;;;5056721;28;20621;-76
2022/03/05 10:50:58;;;;;;;35.87;25.20;;;8.30;99.90;;;;;;5056419;28;20214;-75
2022/03/05 10:53:39;;;;;;;35.67;23.47;;;8.50;99.90;;;;;;5057093;28;20190;-75
2022/03/05 10:56:28;;;;;;;36.33;25.30;;;8.50;99.90;;;;;;5057673;28;20213;-74
2022/03/05 10:58:59;;;;;;;35.37;24.03;;;8.50;99.90;;;;;;5056893;28;20234;-82
2022/03/05 11:01:26;;;;;;;33.57;23.90;;;8.70;99.90;;;;;;5056370;28;20195;-74
2022/03/05 11:03:53;;;;;;;34.07;22.87;;;8.90;99.90;;;;;;5056540;28;20203;-77
2022/03/05 11:06:23;;;;;;;34.63;24.67;;;9.00;99.90;;;;;;5056672;28;20187;-77
2022/03/05 11:08:50;;;;;;;38.57;24.37;;;9.00;99.90;;;;;;5056608;28;20202;-75
2022/03/05 11:11:19;;;;;;;37.58;28.42;;;8.80;99.90;;;;;;5055263;28;20421;-82
2022/03/05 11:13:46;;;;;;;38.13;24.73;;;8.90;99.90;;;;;;5056357;28;20203;-75
2022/03/05 11:16:14;;;;;;;31.53;22.60;;;8.90;99.90;;;;;;5055913;28;20233;-75
2022/03/05 11:18:42;;;;;;;35.07;23.10;;;9.00;99.90;;;;;;5056437;28;20215;-80
2022/03/05 11:21:10;;;;;;;36.03;21.23;;;9.20;99.90;;;;;;5056183;28;20230;-74
2022/03/05 11:23:39;;;;;;;30.00;21.80;;;9.50;99.90;;;;;;5056178;28;20195;-75
2022/03/05 11:26:08;;;;;;;32.17;22.83;;;9.50;99.90;;;;;;5055788;28;20190;-75
2022/03/05 11:28:36;;;;;;;29.30;21.17;;;9.30;99.90;;;;;;5055615;28;20205;-75
2022/03/05 11:31:13;;;;;;;35.30;23.50;;;9.50;99.90;;;;;;5055579;28;20270;-79
2022/03/05 11:33:43;;;;;;;31.70;22.53;;;9.50;99.90;;;;;;5065418;28;20205;-78
2022/03/05 11:36:28;;;;;;;30.70;22.10;;;9.70;99.90;;;;;;5075766;28;20197;-75
2022/03/05 11:39:14;;;;;;;30.87;21.83;;;9.80;99.90;;;;;;5075864;28;20229;-77
2022/03/05 11:42:01;;;;;;;28.97;21.40;;;9.90;99.90;;;;;;5074979;28;20656;-82
2022/03/05 11:44:30;;;;;;;32.77;21.50;;;10.10;99.90;;;;;;5075197;28;20725;-79
2022/03/05 11:47:22;;;;;;;30.07;21.80;;;10.20;99.90;;;;;;5075427;28;20194;-78
2022/03/05 11:50:11;;;;;;;33.63;22.03;;;10.40;99.90;;;;;;5074966;28;20228;-78
2022/03/05 11:53:04;;;;;;;38.13;22.23;;;10.50;99.90;;;;;;5075263;28;20202;-78
2022/03/05 11:55:35;;;;;;;30.03;21.13;;;10.40;99.90;;;;;;5075218;28;20297;-74
2022/03/05 11:58:35;;;;;;;26.80;19.90;;;10.40;99.60;;;;;;5075483;28;20194;-82
2022/03/05 12:01:48;;;;;;;31.08;24.08;;;10.30;98.60;;;;;;5074619;28;20434;-76
2022/03/05 12:04:23;;;;;;;29.80;22.17;;;10.30;99.60;;;;;;5075071;28;20582;-76
2022/03/05 12:06:53;;;;;;;30.10;21.23;;;10.10;99.90;;;;;;5065933;28;20213;-79
2022/03/05 12:09:40;;;;;;;24.40;18.97;;;10.00;99.40;;;;;;5075416;28;20219;-82
2022/03/05 12:12:14;;;;;;;25.43;17.93;;;10.00;97.70;;;;;;5075145;28;20645;-84
2022/03/05 12:15:12;;;;;;;32.20;20.47;;;10.00;97.30;;;;;;5075097;28;20194;-79
2022/03/05 12:17:41;;;;;;;28.13;18.77;;;10.30;98.30;;;;;;5074710;28;20317;-79
2022/03/05 12:20:11;;;;;;;25.43;19.83;;;10.40;98.50;;;;;;5074657;28;20229;-79
2022/03/05 12:22:50;;;;;;;30.33;19.00;;;10.40;98.60;;;;;;5074483;28;20213;-84
2022/03/05 12:25:18;;;;;;;26.43;18.03;;;10.10;97.50;;;;;;5074703;28;20182;-75
2022/03/05 12:27:50;;;;;;;27.63;19.17;;;10.10;97.90;;;;;;5075008;28;20194;-82
2022/03/05 12:30:18;;;;;;;19.23;14.40;;;10.40;98.10;;;;;;5074566;28;20277;-77
2022/03/05 12:32:47;;;;;;;19.20;14.50;;;10.60;95.20;;;;;;5075157;28;20269;-80
2022/03/05 12:35:17;;;;;;;22.07;15.67;;;10.60;93.20;;;;;;5062691;28;20198;-80
2022/03/05 12:37:45;;;;;;;24.93;17.13;;;10.50;95.30;;;;;;5054517;28;20207;-74
2022/03/05 12:40:13;;;;;;;19.80;14.33;;;10.60;96.10;;;;;;5053813;28;21066;-84
2022/03/05 12:42:43;;;;;;;22.03;16.60;;;10.60;95.20;;;;;;5054327;28;20210;-84
2022/03/05 12:45:18;;;;;;;21.50;15.63;;;10.50;95.70;;;;;;5055025;28;20214;-81